createdAt,value
2022-11-05T00:02:23.529Z,100.00
2022-11-05T00:05:13.066Z,100.00
2022-11-05T00:08:06.327Z,100.00
2022-11-05T00:10:37.846Z,100.00
2022-11-05T00:13:29.017Z,100.00
2022-11-05T00:16:18.203Z,100.00
2022-11-05T00:19:06.421Z,100.00
2022-11-05T00:21:57.834Z,100.00
2022-11-05T00:24:46.942Z,100.00
2022-11-05T00:27:19.164Z,100.00
2022-11-05T00:29:51.029Z,100.00
2022-11-05T00:32:23.039Z,100.00
2022-11-05T00:34:54.873Z,100.00
2022-11-05T00:37:27.932Z,100.00
2022-11-05T00:39:59.649Z,100.00
2022-11-05T00:42:49.555Z,100.00
2022-11-05T00:45:22.027Z,100.00
2022-11-05T00:48:25.925Z,100.00
2022-11-05T00:50:57.582Z,100.00
2022-11-05T00:53:29.514Z,100.00
2022-11-05T00:56:02.109Z,100.00
2022-11-05T00:58:34.084Z,100.00
2022-11-05T01:01:06.135Z,100.00
2022-11-05T01:03:40.299Z,100.00
2022-11-05T01:06:14.628Z,100.00
2022-11-05T01:08:49.193Z,100.00
2022-11-05T01:11:34.046Z,100.00
2022-11-05T01:14:07.918Z,100.00
2022-11-05T01:16:41.357Z,100.00
2022-11-05T01:19:11.791Z,100.00
2022-11-05T01:21:43.600Z,100.00
2022-11-05T01:24:15.248Z,100.00
2022-11-05T01:26:46.964Z,100.00
2022-11-05T01:29:18.697Z,100.00
2022-11-05T01:31:50.364Z,100.00
2022-11-05T01:34:22.175Z,100.00
2022-11-05T01:36:53.898Z,100.00
2022-11-05T01:39:25.560Z,100.00
2022-11-05T01:41:58.809Z,100.00
2022-11-05T01:44:59.053Z,100.00
2022-11-05T01:47:43.481Z,100.00
2022-11-05T01:50:34.850Z,100.00
2022-11-05T01:53:14.436Z,100.00
2022-11-05T01:55:50.548Z,100.00
2022-11-05T01:58:27.132Z,100.00
2022-11-05T02:00:59.422Z,100.00
2022-11-05T02:03:32.089Z,100.00
2022-11-05T02:06:03.894Z,100.00
2022-11-05T02:08:48.270Z,100.00
2022-11-05T02:11:21.040Z,100.00
2022-11-05T02:13:52.043Z,100.00
2022-11-05T02:16:37.505Z,100.00
2022-11-05T02:19:26.882Z,100.00
2022-11-05T02:22:26.673Z,100.00
2022-11-05T02:25:17.830Z,100.00
2022-11-05T02:28:18.914Z,100.00
2022-11-05T02:30:55.216Z,100.00
2022-11-05T02:33:40.188Z,100.00
2022-11-05T02:36:32.466Z,100.00
2022-11-05T02:39:17.876Z,100.00
2022-11-05T02:42:04.682Z,100.00
2022-11-05T02:44:46.053Z,100.00
2022-11-05T02:47:25.153Z,100.00
2022-11-05T02:50:06.245Z,100.00
2022-11-05T02:52:44.122Z,100.00
2022-11-05T02:55:23.716Z,100.00
2022-11-05T02:57:55.554Z,100.00
2022-11-05T03:00:48.942Z,100.00
2022-11-05T03:03:32.195Z,100.00
2022-11-05T03:06:31.920Z,100.00
2022-11-05T03:09:32.203Z,100.00
2022-11-05T03:12:19.076Z,100.00
2022-11-05T03:14:59.105Z,100.00
2022-11-05T03:17:40.317Z,100.00
2022-11-05T03:20:20.712Z,100.00
2022-11-05T03:22:56.500Z,100.00
2022-11-05T03:25:29.653Z,100.00
2022-11-05T03:28:06.251Z,100.00
2022-11-05T03:30:41.041Z,100.00
2022-11-05T03:33:18.147Z,100.00
2022-11-05T03:35:55.127Z,100.00
2022-11-05T03:38:29.855Z,100.00
2022-11-05T03:41:07.123Z,100.00
2022-11-05T03:43:41.786Z,100.00
2022-11-05T03:46:18.026Z,100.00
2022-11-05T03:48:52.895Z,100.00
2022-11-05T03:51:30.661Z,100.00
2022-11-05T03:54:05.815Z,100.00
2022-11-05T03:56:43.910Z,100.00
2022-11-05T03:59:17.275Z,100.00
2022-11-05T04:01:50.736Z,100.00
2022-11-05T04:04:22.584Z,100.00
2022-11-05T04:07:11.974Z,100.00
2022-11-05T04:10:01.248Z,100.00
2022-11-05T04:12:50.944Z,100.00
2022-11-05T04:15:22.888Z,100.00
2022-11-05T04:17:55.515Z,100.00
2022-11-05T04:20:45.140Z,100.00
2022-11-05T04:23:34.407Z,100.00
2022-11-05T04:26:06.180Z,100.00
2022-11-05T04:28:51.722Z,100.00
2022-11-05T04:31:23.424Z,100.00
2022-11-05T04:33:55.092Z,100.00
2022-11-05T04:36:26.867Z,100.00
2022-11-05T04:38:58.485Z,100.00
2022-11-05T04:41:30.164Z,100.00
2022-11-05T04:44:02.459Z,100.00
2022-11-05T04:46:34.117Z,100.00
2022-11-05T04:49:05.846Z,100.00
2022-11-05T04:51:37.534Z,100.00
2022-11-05T04:54:09.230Z,100.00
2022-11-05T04:56:40.957Z,100.00
2022-11-05T04:59:12.841Z,100.00
2022-11-05T05:01:44.560Z,100.00
2022-11-05T05:04:16.429Z,100.00
2022-11-05T05:06:48.106Z,100.00
2022-11-05T05:09:20.015Z,100.00
2022-11-05T05:11:51.744Z,100.00
2022-11-05T05:14:23.360Z,100.00
2022-11-05T05:16:55.053Z,100.00
2022-11-05T05:19:28.066Z,100.00
2022-11-05T05:21:59.854Z,100.00
2022-11-05T05:24:31.561Z,100.00
2022-11-05T05:27:03.261Z,100.00
2022-11-05T05:29:34.935Z,100.00
2022-11-05T05:32:06.673Z,100.00
2022-11-05T05:34:38.364Z,100.00
2022-11-05T05:37:10.159Z,100.00
2022-11-05T05:39:41.867Z,100.00
2022-11-05T05:42:13.866Z,100.00
2022-11-05T05:44:45.612Z,100.00
2022-11-05T05:47:17.244Z,100.00
2022-11-05T05:49:48.899Z,100.00
2022-11-05T05:52:20.624Z,100.00
2022-11-05T05:54:52.445Z,100.00
2022-11-05T05:57:24.103Z,100.00
2022-11-05T05:59:55.786Z,100.00
2022-11-05T06:02:27.625Z,100.00
2022-11-05T06:04:59.526Z,100.00
2022-11-05T06:07:36.874Z,100.00
2022-11-05T06:10:10.255Z,100.00
2022-11-05T06:12:41.899Z,100.00
2022-11-05T06:15:14.082Z,100.00
2022-11-05T06:17:47.434Z,100.00
2022-11-05T06:20:19.192Z,100.00
2022-11-05T06:22:57.925Z,100.00
2022-11-05T06:25:29.583Z,100.00
2022-11-05T06:28:01.765Z,100.00
2022-11-05T06:30:33.484Z,100.00
2022-11-05T06:33:08.489Z,100.00
2022-11-05T06:35:40.389Z,100.00
2022-11-05T06:38:12.091Z,100.00
2022-11-05T06:40:43.980Z,100.00
2022-11-05T06:43:15.741Z,100.00
2022-11-05T06:45:47.366Z,100.00
2022-11-05T06:48:19.054Z,100.00
2022-11-05T06:50:51.035Z,100.00
2022-11-05T06:53:22.858Z,100.00
2022-11-05T06:55:54.550Z,100.00
2022-11-05T06:58:26.790Z,100.00
2022-11-05T07:01:03.244Z,100.00
2022-11-05T07:03:35.531Z,100.00
2022-11-05T07:06:09.180Z,100.00
2022-11-05T07:08:40.909Z,100.00
2022-11-05T07:11:12.689Z,100.00
2022-11-05T07:13:45.819Z,100.00
2022-11-05T07:16:17.513Z,100.00
2022-11-05T07:18:49.275Z,100.00
2022-11-05T07:21:21.032Z,100.00
2022-11-05T07:23:52.900Z,100.00
2022-11-05T07:26:24.577Z,100.00
2022-11-05T07:28:57.353Z,100.00
2022-11-05T07:31:27.580Z,100.00
2022-11-05T07:34:00.976Z,100.00
2022-11-05T07:36:34.411Z,100.00
2022-11-05T07:39:06.311Z,100.00
2022-11-05T07:41:38.309Z,100.00
2022-11-05T07:44:10.196Z,100.00
2022-11-05T07:46:41.969Z,100.00
2022-11-05T07:49:13.901Z,100.00
2022-11-05T07:51:46.062Z,100.00
2022-11-05T07:54:17.832Z,100.00
2022-11-05T07:56:50.478Z,100.00
2022-11-05T07:59:22.225Z,100.00
2022-11-05T08:01:54.144Z,100.00
2022-11-05T08:04:26.697Z,100.00
2022-11-05T08:06:58.379Z,100.00
2022-11-05T08:09:30.136Z,100.00
2022-11-05T08:12:03.323Z,100.00
2022-11-05T08:14:35.350Z,100.00
2022-11-05T08:17:07.070Z,100.00
2022-11-05T08:19:39.067Z,100.00
2022-11-05T08:22:10.857Z,100.00
2022-11-05T08:24:42.526Z,100.00
2022-11-05T08:27:14.403Z,100.00
2022-11-05T08:29:47.853Z,100.00
2022-11-05T08:32:19.635Z,100.00
2022-11-05T08:34:51.385Z,100.00
2022-11-05T08:37:24.792Z,100.00
2022-11-05T08:39:56.622Z,100.00
2022-11-05T08:42:28.377Z,100.00
2022-11-05T08:45:00.123Z,100.00
2022-11-05T08:47:31.986Z,100.00
2022-11-05T08:50:03.830Z,100.00
2022-11-05T08:52:35.648Z,100.00
2022-11-05T08:55:08.556Z,100.00
2022-11-05T08:57:40.236Z,100.00
2022-11-05T09:00:14.664Z,100.00
2022-11-05T09:02:46.826Z,100.00
2022-11-05T09:05:18.991Z,100.00
2022-11-05T09:07:52.259Z,100.00
2022-11-05T09:10:26.816Z,100.00
2022-11-05T09:12:58.702Z,100.00
2022-11-05T09:15:30.571Z,100.00
2022-11-05T09:18:02.372Z,100.00
2022-11-05T09:20:36.459Z,100.00
2022-11-05T09:23:08.994Z,100.00
2022-11-05T09:25:39.830Z,100.00
2022-11-05T09:28:16.746Z,100.00
2022-11-05T09:30:51.417Z,100.00
2022-11-05T09:33:25.458Z,100.00
2022-11-05T09:36:00.425Z,100.00
2022-11-05T09:38:32.276Z,100.00
2022-11-05T09:41:07.342Z,100.00
2022-11-05T09:43:43.209Z,100.00
2022-11-05T09:46:21.112Z,100.00
2022-11-05T09:48:56.215Z,100.00
2022-11-05T09:51:27.948Z,100.00
2022-11-05T09:54:02.385Z,99.99
2022-11-05T09:56:38.408Z,100.00
2022-11-05T09:59:19.212Z,100.00
2022-11-05T10:01:52.717Z,100.00
2022-11-05T10:04:28.646Z,100.00
2022-11-05T10:07:03.944Z,100.00
2022-11-05T10:09:43.370Z,99.94
2022-11-05T10:12:18.717Z,99.87
2022-11-05T10:14:59.379Z,99.51
2022-11-05T10:17:37.866Z,99.64
2022-11-05T10:20:20.315Z,99.65
2022-11-05T10:22:56.233Z,99.24
2022-11-05T10:25:31.946Z,99.45
2022-11-05T10:28:05.056Z,98.64
2022-11-05T10:30:36.986Z,98.18
2022-11-05T10:33:09.956Z,97.08
2022-11-05T10:35:48.620Z,96.71
2022-11-05T10:38:20.548Z,96.97
2022-11-05T10:41:05.471Z,96.60
2022-11-05T10:43:44.156Z,96.52
2022-11-05T10:46:28.586Z,95.74
2022-11-05T10:49:12.441Z,94.59
2022-11-05T10:51:45.940Z,94.83
2022-11-05T10:54:22.046Z,94.24
2022-11-05T10:56:53.734Z,94.05
2022-11-05T10:59:28.028Z,95.02
2022-11-05T11:02:04.320Z,94.26
2022-11-05T11:04:38.090Z,93.82
2022-11-05T11:07:22.936Z,93.93
2022-11-05T11:09:55.496Z,93.68
2022-11-05T11:12:41.030Z,92.97
2022-11-05T11:15:24.445Z,92.96
2022-11-05T11:17:57.120Z,92.80
2022-11-05T11:20:31.547Z,91.71
2022-11-05T11:23:06.231Z,90.81
2022-11-05T11:25:46.485Z,90.14
2022-11-05T11:28:26.554Z,90.05
2022-11-05T11:31:07.945Z,90.28
2022-11-05T11:33:42.185Z,90.21
2022-11-05T11:36:17.490Z,90.72
2022-11-05T11:38:49.543Z,90.87
2022-11-05T11:41:32.331Z,90.50
2022-11-05T11:44:12.074Z,90.46
2022-11-05T11:46:47.560Z,90.06
2022-11-05T11:52:18.843Z,89.07
2022-11-05T11:54:51.130Z,89.32
2022-11-05T11:57:29.180Z,88.78
2022-11-05T12:00:10.047Z,88.78
2022-11-05T12:03:07.247Z,88.32
2022-11-05T12:05:47.361Z,88.64
2022-11-05T12:08:37.248Z,89.13
2022-11-05T12:11:17.004Z,88.42
2022-11-05T12:14:11.013Z,88.19
2022-11-05T12:17:01.586Z,87.99
2022-11-05T12:19:47.854Z,87.59
2022-11-05T12:22:30.496Z,87.55
2022-11-05T12:25:14.654Z,87.31
2022-11-05T12:28:11.518Z,87.33
2022-11-05T12:30:50.403Z,87.54
2022-11-05T12:33:36.277Z,88.15
2022-11-05T12:36:22.734Z,87.90
2022-11-05T12:39:05.510Z,87.70
2022-11-05T12:41:47.241Z,87.15
2022-11-05T12:44:42.790Z,85.51
2022-11-05T12:47:30.248Z,84.59
2022-11-05T12:50:15.244Z,83.86
2022-11-05T12:53:13.462Z,83.72
2022-11-05T12:55:49.465Z,84.26
2022-11-05T12:58:31.563Z,84.65
2022-11-05T13:01:17.398Z,85.04
2022-11-05T13:03:55.697Z,85.46
2022-11-05T13:06:35.758Z,85.04
2022-11-05T13:09:14.034Z,85.46
2022-11-05T13:11:52.738Z,85.61
2022-11-05T13:14:28.954Z,84.92
2022-11-05T13:17:05.481Z,84.96
2022-11-05T13:19:42.908Z,84.70
2022-11-05T13:22:30.250Z,84.13
2022-11-05T13:25:06.142Z,84.08
2022-11-05T13:27:49.607Z,83.15
2022-11-05T13:30:25.498Z,83.13
2022-11-05T13:33:00.952Z,82.84
2022-11-05T13:35:38.437Z,83.76
2022-11-05T13:38:35.158Z,83.58
2022-11-05T13:41:26.251Z,82.62
2022-11-05T13:44:13.910Z,81.95
2022-11-05T13:47:01.929Z,80.68
2022-11-05T13:49:58.770Z,80.41
2022-11-05T13:52:50.306Z,80.84
2022-11-05T13:55:58.665Z,80.73
2022-11-05T13:59:22.581Z,80.80
2022-11-05T14:01:58.082Z,80.73
2022-11-05T14:04:35.517Z,80.53
2022-11-05T14:07:13.631Z,80.47
2022-11-05T14:09:45.869Z,79.92
2022-11-05T14:12:27.077Z,80.75
2022-11-05T14:15:05.267Z,80.79
2022-11-05T14:17:58.346Z,81.10
2022-11-05T14:20:59.455Z,81.33
2022-11-05T14:23:41.340Z,79.62
2022-11-05T14:26:19.564Z,78.21
2022-11-05T14:29:09.701Z,76.59
2022-11-05T14:32:11.794Z,76.28
2022-11-05T14:34:47.592Z,76.26
2022-11-05T14:37:28.611Z,76.31
2022-11-05T14:40:24.740Z,76.26
2022-11-05T14:42:58.610Z,78.37
2022-11-05T14:45:35.794Z,76.41
2022-11-05T14:48:25.696Z,76.38
2022-11-05T14:50:57.540Z,76.58
2022-11-05T14:53:34.859Z,76.98
2022-11-05T14:56:10.212Z,77.04
2022-11-05T14:58:43.281Z,77.06
2022-11-05T15:01:55.790Z,77.22
2022-11-05T15:04:31.329Z,77.29
2022-11-05T15:07:33.756Z,77.42
2022-11-05T15:10:13.375Z,78.08
2022-11-05T15:12:48.818Z,78.50
2022-11-05T15:15:25.275Z,78.50
2022-11-05T15:18:02.749Z,78.46
2022-11-05T15:20:41.689Z,78.35
2022-11-05T15:23:16.832Z,78.29
2022-11-05T15:25:53.787Z,78.25
2022-11-05T15:28:33.994Z,78.30
2022-11-05T15:31:07.579Z,77.57
2022-11-05T15:33:40.308Z,77.15
2022-11-05T15:36:21.802Z,77.20
2022-11-05T15:39:22.887Z,77.29
2022-11-05T15:41:45.799Z,77.17
2022-11-05T15:44:29.708Z,77.16
2022-11-05T15:47:21.408Z,77.15
2022-11-05T15:49:55.579Z,77.15
2022-11-05T15:52:36.306Z,77.05
2022-11-05T15:55:19.619Z,77.24
2022-11-05T15:57:53.288Z,77.42
2022-11-05T16:00:26.959Z,77.06
2022-11-05T16:03:03.470Z,77.00
2022-11-05T16:05:37.226Z,77.14
2022-11-05T16:08:15.384Z,76.89
2022-11-05T16:10:50.400Z,77.18
2022-11-05T16:13:29.882Z,77.35
2022-11-05T16:16:03.658Z,77.19
2022-11-05T16:18:37.872Z,77.31
2022-11-05T16:21:12.066Z,77.36
2022-11-05T16:23:47.477Z,77.66
2022-11-05T16:27:01.152Z,77.33
2022-11-05T16:29:29.685Z,77.96
2022-11-05T16:32:04.806Z,78.21
2022-11-05T16:34:41.342Z,79.76
2022-11-05T16:37:19.056Z,80.46
2022-11-05T16:39:51.007Z,81.70
2022-11-05T16:42:41.642Z,80.70
2022-11-05T16:45:16.803Z,81.33
2022-11-05T16:47:49.146Z,81.26
2022-11-05T16:50:25.690Z,80.94
2022-11-05T16:52:57.499Z,80.65
2022-11-05T16:55:30.210Z,81.59
2022-11-05T16:58:02.866Z,81.90
2022-11-05T17:00:35.541Z,81.15
2022-11-05T17:03:07.289Z,82.97
2022-11-05T17:05:39.066Z,84.52
2022-11-05T17:08:11.585Z,83.51
2022-11-05T17:10:41.992Z,84.34
2022-11-05T17:13:16.852Z,83.98
2022-11-05T17:15:51.625Z,83.81
2022-11-05T17:18:23.673Z,84.76
2022-11-05T17:20:57.529Z,86.17
2022-11-05T17:23:30.188Z,86.02
2022-11-05T17:26:06.635Z,86.71
2022-11-05T17:28:39.111Z,86.82
2022-11-05T17:31:13.373Z,88.31
2022-11-05T17:33:45.743Z,88.68
2022-11-05T17:36:18.045Z,88.52
2022-11-05T17:38:50.203Z,88.53
2022-11-05T17:41:23.711Z,88.43
2022-11-05T17:43:58.213Z,87.44
2022-11-05T17:46:30.200Z,86.06
2022-11-05T17:49:02.102Z,86.09
2022-11-05T17:51:34.778Z,87.34
2022-11-05T17:54:07.560Z,87.03
2022-11-05T17:56:44.496Z,86.97
2022-11-05T17:59:16.831Z,86.40
2022-11-05T18:01:49.440Z,85.85
2022-11-05T18:04:20.472Z,85.68
2022-11-05T18:06:52.700Z,85.20
2022-11-05T18:09:24.617Z,84.86
2022-11-05T18:11:56.690Z,85.31
2022-11-05T18:14:28.579Z,85.51
2022-11-05T18:17:01.025Z,85.34
2022-11-05T18:19:32.990Z,86.16
2022-11-05T18:22:05.924Z,86.90
2022-11-05T18:24:37.673Z,87.76
2022-11-05T18:27:09.368Z,88.40
2022-11-05T18:29:41.692Z,88.13
2022-11-05T18:32:13.391Z,87.88
2022-11-05T18:34:45.158Z,88.30
2022-11-05T18:37:17.395Z,87.96
2022-11-05T18:39:53.185Z,89.21
2022-11-05T18:42:25.420Z,89.56
2022-11-05T18:44:57.350Z,87.94
2022-11-05T18:47:29.437Z,87.90
2022-11-05T18:50:01.227Z,87.52
2022-11-05T18:52:34.008Z,87.39
2022-11-05T18:55:04.682Z,88.73
2022-11-05T18:57:37.401Z,89.56
2022-11-05T19:00:12.604Z,89.28
2022-11-05T19:02:44.649Z,89.75
2022-11-05T19:05:31.940Z,89.93
2022-11-05T19:08:04.233Z,90.30
2022-11-05T19:10:36.108Z,89.48
2022-11-05T19:13:07.892Z,88.98
2022-11-05T19:15:42.531Z,88.38
2022-11-05T19:18:14.517Z,88.78
2022-11-05T19:20:46.695Z,88.78
2022-11-05T19:23:18.363Z,88.79
2022-11-05T19:25:50.073Z,88.57
2022-11-05T19:28:21.877Z,89.11
2022-11-05T19:30:53.671Z,89.00
2022-11-05T19:33:25.358Z,89.38
2022-11-05T19:35:59.660Z,89.29
2022-11-05T19:38:31.470Z,90.01
2022-11-05T19:41:07.931Z,90.31
2022-11-05T19:43:41.361Z,89.44
2022-11-05T19:46:15.222Z,88.44
2022-11-05T19:48:47.073Z,88.01
2022-11-05T19:51:21.341Z,87.72
2022-11-05T19:53:55.272Z,87.35
2022-11-05T19:56:29.667Z,87.36
2022-11-05T19:59:03.122Z,87.30
2022-11-05T20:01:35.750Z,87.35
2022-11-05T20:04:07.961Z,87.20
2022-11-05T20:06:41.080Z,87.29
2022-11-05T20:09:21.742Z,87.50
2022-11-05T20:11:56.261Z,87.55
2022-11-05T20:14:29.916Z,87.54
2022-11-05T20:17:02.422Z,87.86
2022-11-05T20:19:35.133Z,88.93
2022-11-05T20:22:07.010Z,89.69
2022-11-05T20:24:38.923Z,89.88
2022-11-05T20:27:10.914Z,90.32
2022-11-05T20:29:43.088Z,90.72
2022-11-05T20:32:15.064Z,91.08
2022-11-05T20:34:47.684Z,90.39
2022-11-05T20:37:20.120Z,90.87
2022-11-05T20:39:51.876Z,90.86
2022-11-05T20:42:23.627Z,91.51
2022-11-05T20:44:55.463Z,91.03
2022-11-05T20:47:27.225Z,90.21
2022-11-05T20:50:00.127Z,90.23
2022-11-05T20:52:32.069Z,91.17
2022-11-05T20:55:09.056Z,91.19
2022-11-05T20:57:41.046Z,91.33
2022-11-05T21:00:15.762Z,90.39
2022-11-05T21:02:47.738Z,89.81
2022-11-05T21:05:20.284Z,89.64
2022-11-05T21:07:52.063Z,89.71
2022-11-05T21:10:24.074Z,90.38
2022-11-05T21:12:55.871Z,89.91
2022-11-05T21:15:27.642Z,90.35
2022-11-05T21:18:00.371Z,92.04
2022-11-05T21:20:30.527Z,92.18
2022-11-05T21:23:02.125Z,91.74
2022-11-05T21:25:34.425Z,91.19
2022-11-05T21:28:06.533Z,90.74
2022-11-05T21:30:41.557Z,90.80
2022-11-05T21:33:13.341Z,90.90
2022-11-05T21:35:47.550Z,91.75
2022-11-05T21:38:19.921Z,91.39
2022-11-05T21:40:51.636Z,91.21
2022-11-05T21:43:23.620Z,92.12
2022-11-05T21:45:55.989Z,92.89
2022-11-05T21:48:27.786Z,92.15
2022-11-05T21:51:17.367Z,91.65
2022-11-05T21:54:06.815Z,91.54
2022-11-05T21:56:59.115Z,92.32
2022-11-05T21:59:51.803Z,94.26
2022-11-05T22:02:28.482Z,100.00
2022-11-05T22:05:02.279Z,98.20
2022-11-05T22:07:36.061Z,89.86
2022-11-05T22:10:15.876Z,91.13
2022-11-05T22:12:48.120Z,88.42
2022-11-05T22:15:19.975Z,88.19
2022-11-05T22:17:53.746Z,90.12
2022-11-05T22:20:25.691Z,90.11
2022-11-05T22:22:57.576Z,92.09
2022-11-05T22:25:29.431Z,92.68
2022-11-05T22:28:01.437Z,92.13
2022-11-05T22:30:35.473Z,92.76
2022-11-05T22:33:07.627Z,93.14
2022-11-05T22:35:41.339Z,93.61
2022-11-05T22:38:13.656Z,92.72
2022-11-05T22:40:45.734Z,93.04
2022-11-05T22:43:17.345Z,93.91
2022-11-05T22:45:49.040Z,94.14
2022-11-05T22:48:20.801Z,94.97
2022-11-05T22:50:52.778Z,95.45
2022-11-05T22:53:24.566Z,95.86
2022-11-05T22:55:56.296Z,96.70
2022-11-05T22:58:28.065Z,96.15
2022-11-05T23:00:59.836Z,94.88
2022-11-05T23:03:33.345Z,94.24
2022-11-05T23:06:07.500Z,94.06
2022-11-05T23:09:11.083Z,94.55
2022-11-05T23:11:42.660Z,95.62
2022-11-05T23:14:15.905Z,95.58
2022-11-05T23:17:05.573Z,94.98
2022-11-05T23:19:55.238Z,94.97
2022-11-05T23:22:46.687Z,94.47
2022-11-05T23:25:20.893Z,94.25
2022-11-05T23:27:55.712Z,95.10
2022-11-05T23:30:29.989Z,94.94
2022-11-05T23:33:01.936Z,95.01
2022-11-05T23:35:53.205Z,94.30
2022-11-05T23:38:37.939Z,93.80
2022-11-05T23:41:27.873Z,94.24
2022-11-05T23:44:17.508Z,93.62
2022-11-05T23:47:06.603Z,93.86
2022-11-05T23:49:38.290Z,94.78
2022-11-05T23:52:10.050Z,94.93
2022-11-05T23:54:41.831Z,95.54
2022-11-05T23:57:13.649Z,95.30
2022-11-05T23:59:45.313Z,96.70
